DLH457 KLAX-EDDF
Flight info
| Callsign | DLH457 |
|---|---|
| Flight time | N/A |
| Altitude | 33000 |
| Route | OSHNN1 BEALE Q842 WINEN DCT KU57O DCT KU81S DCT KU03U DCT ISN DCT AMENU DCT 55N095W 5830N09000W 63N080W/N0496F350 66N070W/M085F350 DCT CANEL DCT 70N050W 7030N04000W 70N030W 6830N02000W/M085F370 66N010W DCT GUNPA/N0486F370 DCT NORSO DCT DOROR DCT NORTA DCT RIMET/N0496F310 T157 KOKEB/N0466F230 T157 KERAX KERAX5A |
| Aircraft | B748/H-SDE3FGHIM1M2RWXY/LB1 |
Departure
| Time | 2026-04-24 02:36 |
|---|---|
| Airport | Los Angeles International Airport (KLAX) |
Arrival
| Time | N/A |
|---|---|
| Airport | Frankfurt Main Airport (EDDF) |
| Time | Latitude | Longitude | Altitude | Speed | Heading |
|---|---|---|---|---|---|
| 2026-04-24 02:02 | 33.94098 | -118.41100 | 132 ft | 0 kts | 83° |
| 2026-04-24 02:02 | 33.94177 | -118.41102 | 132 ft | 0 kts | 82° |
| 2026-04-24 02:20 | 33.94175 | -118.41119 | 128 ft | 4 kts | 83° |
| 2026-04-24 02:20 | 33.94172 | -118.41152 | 132 ft | 4 kts | 84° |
| 2026-04-24 02:20 | 33.94167 | -118.41172 | 130 ft | 4 kts | 108° |
| 2026-04-24 02:21 | 33.94173 | -118.41194 | 128 ft | 4 kts | 133° |
| 2026-04-24 02:21 | 33.94187 | -118.41209 | 128 ft | 4 kts | 168° |
| 2026-04-24 02:21 | 33.94214 | -118.41214 | 132 ft | 3 kts | 173° |
| 2026-04-24 02:21 | 33.94217 | -118.41214 | 132 ft | 2 kts | 172° |
| 2026-04-24 02:24 | 33.94211 | -118.41213 | 123 ft | 2 kts | 172° |
| 2026-04-24 02:24 | 33.94186 | -118.41209 | 128 ft | 5 kts | 173° |
| 2026-04-24 02:24 | 33.94140 | -118.41202 | 126 ft | 8 kts | 173° |
| 2026-04-24 02:24 | 33.94081 | -118.41193 | 129 ft | 8 kts | 173° |
| 2026-04-24 02:25 | 33.94013 | -118.41184 | 132 ft | 12 kts | 173° |
| 2026-04-24 02:25 | 33.93914 | -118.41170 | 127 ft | 17 kts | 173° |
| 2026-04-24 02:25 | 33.93801 | -118.41146 | 130 ft | 13 kts | 152° |
| 2026-04-24 02:25 | 33.93774 | -118.41101 | 129 ft | 6 kts | 105° |
| 2026-04-24 02:26 | 33.93774 | -118.41032 | 132 ft | 10 kts | 84° |
| 2026-04-24 02:26 | 33.93784 | -118.40928 | 132 ft | 15 kts | 83° |
| 2026-04-24 02:26 | 33.93798 | -118.40789 | 125 ft | 18 kts | 83° |
| 2026-04-24 02:26 | 33.93813 | -118.40647 | 130 ft | 17 kts | 83° |
| 2026-04-24 02:27 | 33.93827 | -118.40502 | 128 ft | 18 kts | 83° |
| 2026-04-24 02:27 | 33.93843 | -118.40351 | 132 ft | 19 kts | 83° |
| 2026-04-24 02:27 | 33.93859 | -118.40193 | 128 ft | 19 kts | 83° |
| 2026-04-24 02:27 | 33.93876 | -118.40033 | 132 ft | 19 kts | 83° |
| 2026-04-24 02:28 | 33.93892 | -118.39878 | 128 ft | 19 kts | 83° |
| 2026-04-24 02:28 | 33.93907 | -118.39716 | 132 ft | 19 kts | 83° |
| 2026-04-24 02:28 | 33.93923 | -118.39567 | 132 ft | 17 kts | 82° |
| 2026-04-24 02:28 | 33.93937 | -118.39429 | 124 ft | 17 kts | 83° |
| 2026-04-24 02:29 | 33.93952 | -118.39282 | 127 ft | 18 kts | 83° |
| 2026-04-24 02:29 | 33.93967 | -118.39134 | 124 ft | 18 kts | 83° |
| 2026-04-24 02:29 | 33.93983 | -118.38981 | 124 ft | 19 kts | 83° |
| 2026-04-24 02:29 | 33.93999 | -118.38824 | 124 ft | 19 kts | 83° |
| 2026-04-24 02:30 | 33.94015 | -118.38665 | 125 ft | 20 kts | 83° |
| 2026-04-24 02:30 | 33.94032 | -118.38507 | 131 ft | 18 kts | 83° |
| 2026-04-24 02:30 | 33.94046 | -118.38361 | 132 ft | 17 kts | 83° |
| 2026-04-24 02:30 | 33.94060 | -118.38228 | 132 ft | 15 kts | 82° |
| 2026-04-24 02:31 | 33.94072 | -118.38112 | 132 ft | 11 kts | 82° |
| 2026-04-24 02:31 | 33.94078 | -118.38062 | 132 ft | 0 kts | 83° |
| 2026-04-24 02:34 | 33.94078 | -118.38057 | 132 ft | 3 kts | 83° |
| 2026-04-24 02:34 | 33.94076 | -118.38036 | 132 ft | 3 kts | 104° |
| 2026-04-24 02:34 | 33.94059 | -118.38014 | 128 ft | 5 kts | 147° |
| 2026-04-24 02:34 | 33.94012 | -118.38003 | 132 ft | 6 kts | 192° |
| 2026-04-24 02:35 | 33.93983 | -118.38040 | 124 ft | 7 kts | 248° |
| 2026-04-24 02:35 | 33.93972 | -118.38144 | 132 ft | 27 kts | 263° |
| 2026-04-24 02:35 | 33.93922 | -118.38640 | 132 ft | 92 kts | 264° |
| 2026-04-24 02:35 | 33.93817 | -118.39647 | 132 ft | 147 kts | 263° |
| 2026-04-24 02:36 | 33.93677 | -118.41018 | 256 ft | 181 kts | 262° |
| 2026-04-24 02:36 | 33.93527 | -118.42507 | 1127 ft | 174 kts | 263° |
| 2026-04-24 02:36 | 33.93389 | -118.43999 | 1592 ft | 189 kts | 264° |
| 2026-04-24 02:36 | 33.93204 | -118.45671 | 1874 ft | 211 kts | 259° |
| 2026-04-24 02:37 | 33.92577 | -118.47360 | 2160 ft | 235 kts | 235° |
| 2026-04-24 02:37 | 33.91410 | -118.48901 | 2377 ft | 260 kts | 226° |
| 2026-04-24 02:37 | 33.90084 | -118.50408 | 3107 ft | 260 kts | 226° |
| 2026-04-24 02:37 | 33.89259 | -118.51441 | 3813 ft | 258 kts | 229° |
| 2026-04-24 02:38 | 33.88036 | -118.53097 | 4536 ft | 273 kts | 229° |
| 2026-04-24 02:38 | 33.86733 | -118.54780 | 5459 ft | 273 kts | 220° |
| 2026-04-24 02:38 | 33.84409 | -118.56155 | 5929 ft | 291 kts | 189° |
| 2026-04-24 02:38 | 33.83069 | -118.56213 | 5954 ft | 282 kts | 169° |
| 2026-04-24 02:39 | 33.81188 | -118.55605 | 6089 ft | 286 kts | 162° |
| 2026-04-24 02:39 | 33.79292 | -118.55091 | 6135 ft | 277 kts | 176° |
| 2026-04-24 02:39 | 33.77329 | -118.55160 | 5892 ft | 289 kts | 186° |
| 2026-04-24 02:39 | 33.75351 | -118.55533 | 5704 ft | 279 kts | 190° |
| 2026-04-24 02:40 | 33.73466 | -118.55964 | 5775 ft | 276 kts | 191° |
| 2026-04-24 02:40 | 33.71569 | -118.56423 | 5878 ft | 279 kts | 191° |
| 2026-04-24 02:40 | 33.69666 | -118.56888 | 5982 ft | 281 kts | 191° |
| 2026-04-24 02:40 | 33.67722 | -118.57361 | 5994 ft | 286 kts | 191° |
| 2026-04-24 02:41 | 33.65792 | -118.57828 | 5992 ft | 286 kts | 189° |
| 2026-04-24 02:41 | 33.63829 | -118.57748 | 6023 ft | 286 kts | 162° |
| 2026-04-24 02:41 | 33.62115 | -118.56563 | 6310 ft | 286 kts | 129° |
| 2026-04-24 02:41 | 33.61076 | -118.54569 | 7226 ft | 287 kts | 107° |
| 2026-04-24 02:42 | 33.60848 | -118.52184 | 7955 ft | 292 kts | 81° |
| 2026-04-24 02:42 | 33.61266 | -118.49773 | 8712 ft | 299 kts | 75° |
| 2026-04-24 02:42 | 33.61734 | -118.47316 | 9489 ft | 305 kts | 79° |
| 2026-04-24 02:42 | 33.62007 | -118.44769 | 10198 ft | 312 kts | 85° |
| 2026-04-24 02:43 | 33.62183 | -118.42142 | 10892 ft | 318 kts | 84° |
| 2026-04-24 02:43 | 33.62414 | -118.39427 | 11208 ft | 340 kts | 82° |
| 2026-04-24 02:43 | 33.62720 | -118.36496 | 11340 ft | 368 kts | 82° |
| 2026-04-24 02:43 | 33.63036 | -118.33340 | 11473 ft | 394 kts | 83° |
| 2026-04-24 02:44 | 33.63344 | -118.29957 | 11566 ft | 421 kts | 83° |
| 2026-04-24 02:44 | 33.63661 | -118.26465 | 12261 ft | 427 kts | 83° |
| 2026-04-24 02:44 | 33.64040 | -118.22884 | 12967 ft | 434 kts | 77° |
| 2026-04-24 02:44 | 33.65000 | -118.19446 | 13669 ft | 438 kts | 61° |
| 2026-04-24 02:45 | 33.66643 | -118.16377 | 14317 ft | 438 kts | 46° |
| 2026-04-24 02:45 | 33.68855 | -118.13864 | 14932 ft | 438 kts | 34° |
| 2026-04-24 02:45 | 33.71342 | -118.11718 | 15564 ft | 442 kts | 30° |
| 2026-04-24 02:45 | 33.73883 | -118.09610 | 16200 ft | 447 kts | 32° |
| 2026-04-24 02:46 | 33.76392 | -118.07348 | 16824 ft | 453 kts | 34° |
| 2026-04-24 02:46 | 33.78894 | -118.05006 | 17429 ft | 458 kts | 33° |
| 2026-04-24 02:46 | 33.81455 | -118.02695 | 18036 ft | 462 kts | 32° |
| 2026-04-24 02:46 | 33.84069 | -118.00397 | 18614 ft | 467 kts | 32° |
| 2026-04-24 02:47 | 33.86652 | -117.98088 | 19167 ft | 471 kts | 33° |
| 2026-04-24 02:47 | 33.89284 | -117.95692 | 19718 ft | 474 kts | 33° |
| 2026-04-24 02:47 | 33.91928 | -117.93293 | 20254 ft | 478 kts | 33° |
| 2026-04-24 02:47 | 33.94593 | -117.90872 | 20771 ft | 482 kts | 33° |
| 2026-04-24 02:48 | 33.97272 | -117.88416 | 21302 ft | 485 kts | 33° |
| 2026-04-24 02:48 | 33.99972 | -117.85938 | 21822 ft | 489 kts | 33° |
| 2026-04-24 02:48 | 34.02687 | -117.83456 | 22323 ft | 492 kts | 33° |
| 2026-04-24 02:48 | 34.05435 | -117.80945 | 22811 ft | 496 kts | 33° |
| 2026-04-24 02:49 | 34.08169 | -117.78386 | 23296 ft | 501 kts | 38° |
| 2026-04-24 02:49 | 34.10603 | -117.75313 | 23721 ft | 509 kts | 47° |
| 2026-04-24 02:49 | 34.12820 | -117.72035 | 24076 ft | 513 kts | 48° |
| 2026-04-24 02:49 | 34.15065 | -117.68659 | 24460 ft | 516 kts | 48° |
| 2026-04-24 02:50 | 34.17334 | -117.65279 | 24842 ft | 518 kts | 47° |
| 2026-04-24 02:50 | 34.19625 | -117.61899 | 25178 ft | 522 kts | 47° |
| 2026-04-24 02:50 | 34.21927 | -117.58490 | 25563 ft | 525 kts | 47° |
| 2026-04-24 02:50 | 34.24228 | -117.55051 | 25896 ft | 527 kts | 48° |
| 2026-04-24 02:51 | 34.26543 | -117.51590 | 26234 ft | 531 kts | 47° |
| 2026-04-24 02:51 | 34.28876 | -117.48120 | 26555 ft | 533 kts | 47° |
| 2026-04-24 02:51 | 34.31221 | -117.44627 | 26915 ft | 536 kts | 47° |
| 2026-04-24 02:51 | 34.33576 | -117.41104 | 27251 ft | 539 kts | 47° |
| 2026-04-24 02:52 | 34.35938 | -117.37564 | 27582 ft | 542 kts | 47° |
| 2026-04-24 02:52 | 34.38322 | -117.33996 | 27930 ft | 545 kts | 47° |
| 2026-04-24 02:52 | 34.40712 | -117.30419 | 28240 ft | 548 kts | 47° |
| 2026-04-24 02:52 | 34.43114 | -117.26814 | 28582 ft | 550 kts | 47° |
| 2026-04-24 02:53 | 34.45526 | -117.23189 | 28911 ft | 553 kts | 47° |
| 2026-04-24 02:53 | 34.47916 | -117.19596 | 29242 ft | 556 kts | 47° |
| 2026-04-24 02:53 | 34.50352 | -117.15932 | 29564 ft | 559 kts | 47° |
| 2026-04-24 02:53 | 34.52797 | -117.12248 | 29894 ft | 562 kts | 48° |
| 2026-04-24 02:54 | 34.55289 | -117.08583 | 30281 ft | 561 kts | 46° |
| 2026-04-24 02:54 | 34.57800 | -117.04962 | 30664 ft | 561 kts | 47° |
| 2026-04-24 02:54 | 34.60271 | -117.01289 | 31042 ft | 561 kts | 47° |
| 2026-04-24 02:54 | 34.62750 | -116.97640 | 31403 ft | 559 kts | 46° |
| 2026-04-24 02:55 | 34.65259 | -116.94024 | 31734 ft | 560 kts | 46° |
| 2026-04-24 02:55 | 34.67763 | -116.90397 | 32122 ft | 559 kts | 47° |
| 2026-04-24 02:55 | 34.70238 | -116.86755 | 32493 ft | 559 kts | 47° |
| 2026-04-24 02:55 | 34.72678 | -116.83159 | 32845 ft | 559 kts | 47° |
| 2026-04-24 02:56 | 34.77682 | -116.75852 | 32947 ft | 561 kts | 47° |
| 2026-04-24 02:56 | 34.82651 | -116.68536 | 32945 ft | 559 kts | 47° |
| 2026-04-24 02:57 | 34.87742 | -116.61380 | 32948 ft | 557 kts | 44° |
| 2026-04-24 02:57 | 34.92942 | -116.54424 | 32941 ft | 558 kts | 44° |
| 2026-04-24 02:58 | 34.98179 | -116.47417 | 32929 ft | 558 kts | 44° |
| 2026-04-24 02:58 | 35.03402 | -116.40414 | 32924 ft | 557 kts | 44° |
| 2026-04-24 02:59 | 35.08618 | -116.33403 | 32922 ft | 557 kts | 44° |
| 2026-04-24 02:59 | 35.13826 | -116.26393 | 32917 ft | 558 kts | 44° |
| 2026-04-24 03:00 | 35.19004 | -116.19403 | 32911 ft | 558 kts | 44° |
| 2026-04-24 03:00 | 35.24216 | -116.12359 | 32924 ft | 559 kts | 44° |
| 2026-04-24 03:01 | 35.29437 | -116.05283 | 32929 ft | 559 kts | 44° |
| 2026-04-24 03:01 | 35.34656 | -115.98199 | 32941 ft | 560 kts | 44° |
| 2026-04-24 03:02 | 35.39838 | -115.91147 | 32951 ft | 560 kts | 44° |
| 2026-04-24 03:02 | 35.45064 | -115.84022 | 32967 ft | 561 kts | 44° |
| 2026-04-24 03:03 | 35.50285 | -115.76888 | 32963 ft | 562 kts | 44° |
| 2026-04-24 03:03 | 35.55508 | -115.69739 | 32985 ft | 563 kts | 44° |
| 2026-04-24 03:04 | 35.60711 | -115.62599 | 32984 ft | 564 kts | 44° |
| 2026-04-24 03:04 | 35.65948 | -115.55398 | 32989 ft | 564 kts | 44° |
| 2026-04-24 03:05 | 35.71169 | -115.48205 | 32989 ft | 564 kts | 44° |
| 2026-04-24 03:05 | 35.76383 | -115.41002 | 32993 ft | 562 kts | 44° |
| 2026-04-24 03:06 | 35.81567 | -115.33829 | 32982 ft | 564 kts | 44° |
| 2026-04-24 03:06 | 35.86780 | -115.26595 | 32985 ft | 564 kts | 44° |
| 2026-04-24 03:07 | 35.92005 | -115.19333 | 32971 ft | 564 kts | 44° |
| 2026-04-24 03:07 | 35.97188 | -115.12111 | 32971 ft | 563 kts | 44° |
| 2026-04-24 03:08 | 36.04997 | -115.01205 | 32958 ft | 564 kts | 44° |
| 2026-04-24 03:09 | 36.10159 | -114.93974 | 32892 ft | 563 kts | 44° |
| 2026-04-24 03:09 | 36.15349 | -114.86691 | 32885 ft | 563 kts | 43° |
| 2026-04-24 03:09 | 36.18139 | -114.83336 | 32901 ft | 555 kts | 32° |
| 2026-04-24 03:10 | 36.21282 | -114.80634 | 32891 ft | 546 kts | 22° |
| 2026-04-24 03:10 | 36.27940 | -114.76194 | 32872 ft | 541 kts | 21° |
| 2026-04-24 03:11 | 36.34593 | -114.71801 | 32861 ft | 541 kts | 21° |
| 2026-04-24 03:11 | 36.41175 | -114.67415 | 32856 ft | 540 kts | 21° |
| 2026-04-24 03:12 | 36.47804 | -114.63012 | 32849 ft | 539 kts | 21° |
| 2026-04-24 03:12 | 36.54420 | -114.58594 | 32856 ft | 538 kts | 21° |
| 2026-04-24 03:13 | 36.61028 | -114.54183 | 32857 ft | 538 kts | 21° |
| 2026-04-24 03:13 | 36.67629 | -114.49763 | 32864 ft | 539 kts | 21° |
| 2026-04-24 03:14 | 36.74145 | -114.45076 | 32849 ft | 543 kts | 25° |
| 2026-04-24 03:14 | 36.80537 | -114.40043 | 32865 ft | 542 kts | 25° |
| 2026-04-24 03:15 | 36.86926 | -114.35044 | 32873 ft | 543 kts | 25° |
| 2026-04-24 03:15 | 36.93317 | -114.30009 | 32873 ft | 543 kts | 25° |
| 2026-04-24 03:16 | 36.99679 | -114.24999 | 32889 ft | 543 kts | 25° |
| 2026-04-24 03:16 | 37.06073 | -114.19948 | 32890 ft | 543 kts | 25° |
| 2026-04-24 03:17 | 37.12457 | -114.14897 | 32892 ft | 543 kts | 25° |
| 2026-04-24 03:17 | 37.18840 | -114.09838 | 32899 ft | 542 kts | 25° |
| 2026-04-24 03:18 | 37.25224 | -114.04765 | 32911 ft | 543 kts | 25° |
| 2026-04-24 03:18 | 37.31561 | -113.99721 | 32914 ft | 541 kts | 25° |
| 2026-04-24 03:19 | 37.37916 | -113.94651 | 32909 ft | 540 kts | 25° |
| 2026-04-24 03:19 | 37.44271 | -113.89572 | 32920 ft | 539 kts | 25° |
| 2026-04-24 03:20 | 37.50611 | -113.84495 | 32923 ft | 540 kts | 25° |
| 2026-04-24 03:20 | 37.56959 | -113.79400 | 32916 ft | 540 kts | 26° |
| 2026-04-24 03:21 | 37.63267 | -113.74327 | 32931 ft | 541 kts | 26° |
| 2026-04-24 03:21 | 37.69604 | -113.69219 | 32940 ft | 541 kts | 25° |
| 2026-04-24 03:22 | 37.75945 | -113.64099 | 32946 ft | 541 kts | 25° |
| 2026-04-24 03:22 | 37.82301 | -113.58955 | 32948 ft | 540 kts | 25° |
| 2026-04-24 03:23 | 37.88634 | -113.53820 | 32952 ft | 540 kts | 25° |
| 2026-04-24 03:23 | 37.94870 | -113.48586 | 32969 ft | 543 kts | 30° |
| 2026-04-24 03:24 | 38.00954 | -113.42890 | 32967 ft | 543 kts | 30° |
| 2026-04-24 03:24 | 38.06007 | -113.38177 | 32968 ft | 542 kts | 30° |
| 2026-04-24 03:25 | 38.12084 | -113.32487 | 32973 ft | 542 kts | 30° |
| 2026-04-24 03:25 | 38.18150 | -113.26793 | 32981 ft | 541 kts | 30° |
| 2026-04-24 03:26 | 38.24199 | -113.21109 | 32994 ft | 539 kts | 30° |
| 2026-04-24 03:26 | 38.30231 | -113.15423 | 33013 ft | 538 kts | 30° |
| 2026-04-24 03:27 | 38.36245 | -113.09747 | 33028 ft | 538 kts | 30° |
| 2026-04-24 03:27 | 38.42220 | -113.04093 | 33034 ft | 538 kts | 30° |
| 2026-04-24 03:28 | 38.48237 | -112.98388 | 33029 ft | 538 kts | 30° |
| 2026-04-24 03:28 | 38.54255 | -112.92669 | 33015 ft | 539 kts | 30° |
| 2026-04-24 03:29 | 38.60266 | -112.86944 | 33001 ft | 538 kts | 30° |
| 2026-04-24 03:29 | 38.66273 | -112.81213 | 33001 ft | 538 kts | 30° |
| 2026-04-24 03:30 | 38.72243 | -112.75503 | 32986 ft | 538 kts | 30° |
| 2026-04-24 03:30 | 38.78235 | -112.69761 | 32999 ft | 537 kts | 30° |
| 2026-04-24 03:31 | 38.84222 | -112.64010 | 33020 ft | 537 kts | 31° |
| 2026-04-24 03:31 | 38.90170 | -112.58286 | 33048 ft | 538 kts | 31° |
| 2026-04-24 03:32 | 38.96156 | -112.52511 | 33057 ft | 537 kts | 31° |
| 2026-04-24 03:32 | 39.02132 | -112.46734 | 33062 ft | 537 kts | 31° |
| 2026-04-24 03:33 | 39.08088 | -112.40964 | 33057 ft | 536 kts | 31° |
| 2026-04-24 03:33 | 39.14039 | -112.35186 | 33046 ft | 535 kts | 31° |
| 2026-04-24 03:34 | 39.19985 | -112.29401 | 33025 ft | 534 kts | 31° |
| 2026-04-24 03:34 | 39.25913 | -112.23621 | 33019 ft | 534 kts | 31° |
| 2026-04-24 03:35 | 39.31791 | -112.17877 | 33014 ft | 533 kts | 32° |
| 2026-04-24 03:35 | 39.37696 | -112.12092 | 33013 ft | 532 kts | 32° |
| 2026-04-24 03:36 | 39.43599 | -112.06300 | 33003 ft | 532 kts | 32° |
| 2026-04-24 03:36 | 39.49484 | -112.00511 | 33005 ft | 531 kts | 31° |
| 2026-04-24 03:37 | 39.55466 | -111.94962 | 33000 ft | 527 kts | 31° |
| 2026-04-24 03:37 | 39.61412 | -111.89407 | 33003 ft | 526 kts | 30° |
| 2026-04-24 03:38 | 39.67374 | -111.83890 | 33001 ft | 526 kts | 30° |
| 2026-04-24 03:38 | 39.73307 | -111.78341 | 33000 ft | 524 kts | 30° |
| 2026-04-24 03:39 | 39.79194 | -111.72855 | 33010 ft | 523 kts | 31° |
| 2026-04-24 03:39 | 39.85101 | -111.67318 | 33024 ft | 523 kts | 31° |
| 2026-04-24 03:40 | 39.91003 | -111.61786 | 33019 ft | 522 kts | 31° |
| 2026-04-24 03:40 | 39.96893 | -111.56246 | 33029 ft | 521 kts | 31° |
| 2026-04-24 03:41 | 40.02767 | -111.50713 | 33030 ft | 520 kts | 31° |
| 2026-04-24 03:41 | 40.08611 | -111.45195 | 33028 ft | 518 kts | 31° |
| 2026-04-24 03:42 | 40.14451 | -111.39670 | 33027 ft | 517 kts | 31° |
| 2026-04-24 03:42 | 40.20242 | -111.34178 | 33040 ft | 516 kts | 31° |
| 2026-04-24 03:43 | 40.26052 | -111.28656 | 33033 ft | 516 kts | 32° |
| 2026-04-24 03:43 | 40.31854 | -111.23131 | 33028 ft | 515 kts | 32° |
| 2026-04-24 03:44 | 40.37652 | -111.17597 | 33036 ft | 515 kts | 32° |
| 2026-04-24 03:44 | 40.43442 | -111.12058 | 33033 ft | 514 kts | 32° |
| 2026-04-24 03:45 | 40.49221 | -111.06518 | 33039 ft | 514 kts | 32° |
| 2026-04-24 03:45 | 40.54955 | -111.01009 | 33031 ft | 513 kts | 32° |
| 2026-04-24 03:46 | 40.60719 | -110.95460 | 33034 ft | 512 kts | 32° |
| 2026-04-24 03:46 | 40.66459 | -110.89922 | 33036 ft | 510 kts | 32° |
| 2026-04-24 03:47 | 40.72185 | -110.84384 | 33017 ft | 512 kts | 32° |
| 2026-04-24 03:47 | 40.77936 | -110.78811 | 33021 ft | 512 kts | 32° |
| 2026-04-24 03:48 | 40.83643 | -110.73268 | 33014 ft | 512 kts | 32° |
| 2026-04-24 03:48 | 40.89385 | -110.67678 | 33011 ft | 512 kts | 32° |
| 2026-04-24 03:49 | 40.95129 | -110.62076 | 33010 ft | 513 kts | 32° |
| 2026-04-24 03:49 | 41.00867 | -110.56465 | 33003 ft | 513 kts | 32° |
| 2026-04-24 03:50 | 41.06607 | -110.50841 | 32988 ft | 513 kts | 32° |
| 2026-04-24 03:50 | 41.12340 | -110.45211 | 32994 ft | 513 kts | 32° |